createdAt,value
2017-12-10T00:00:25.729Z,1005.56
2017-12-10T00:01:53.034Z,1005.51
2017-12-10T00:03:20.272Z,1005.50
2017-12-10T00:04:47.586Z,1005.46
2017-12-10T00:06:14.786Z,1005.48
2017-12-10T00:07:41.971Z,1005.44
2017-12-10T00:09:09.267Z,1005.46
2017-12-10T00:10:36.595Z,1005.40
2017-12-10T00:12:03.628Z,1005.38
2017-12-10T00:13:30.976Z,1005.32
2017-12-10T00:14:58.095Z,1005.35
2017-12-10T00:16:25.419Z,1005.32
2017-12-10T00:17:52.681Z,1005.24
2017-12-10T00:19:19.947Z,1005.26
2017-12-10T00:20:47.095Z,1005.22
2017-12-10T00:22:14.514Z,1005.26
2017-12-10T00:23:41.829Z,1005.26
2017-12-10T00:25:09.056Z,1005.22
2017-12-10T00:26:36.204Z,1005.20
2017-12-10T00:28:03.222Z,1005.18
2017-12-10T00:29:30.482Z,1005.17
2017-12-10T00:30:57.658Z,1005.14
2017-12-10T00:32:24.817Z,1005.13
2017-12-10T00:33:52.075Z,1005.11
2017-12-10T00:35:19.067Z,1005.15
2017-12-10T00:36:46.255Z,1005.13
2017-12-10T00:38:13.610Z,1005.13
2017-12-10T00:39:40.938Z,1005.13
2017-12-10T00:41:08.072Z,1005.12
2017-12-10T00:42:35.042Z,1005.12
2017-12-10T00:44:02.317Z,1005.16
2017-12-10T00:45:29.533Z,1005.12
2017-12-10T00:46:56.736Z,1005.15
2017-12-10T00:48:23.970Z,1005.10
2017-12-10T00:49:51.207Z,1005.08
2017-12-10T00:51:18.469Z,1005.08
2017-12-10T00:52:45.613Z,1005.07
2017-12-10T00:54:12.892Z,1005.11
2017-12-10T00:55:40.208Z,1005.07
2017-12-10T00:57:07.462Z,1005.06
2017-12-10T00:58:34.709Z,1005.11
2017-12-10T01:00:01.991Z,1005.09
2017-12-10T01:01:29.007Z,1005.06
2017-12-10T01:02:56.346Z,1005.07
2017-12-10T01:04:23.649Z,1005.09
2017-12-10T01:05:50.992Z,1005.12
2017-12-10T01:07:18.219Z,1005.11
2017-12-10T01:08:45.554Z,1005.08
2017-12-10T01:10:12.872Z,1005.05
2017-12-10T01:11:40.051Z,1005.04
2017-12-10T01:13:07.388Z,1005.00
2017-12-10T01:14:34.451Z,1004.96
2017-12-10T01:16:01.751Z,1004.97
2017-12-10T01:17:28.948Z,1004.93
2017-12-10T01:18:56.279Z,1004.95
2017-12-10T01:20:23.495Z,1004.93
2017-12-10T01:21:50.810Z,1004.93
2017-12-10T01:23:18.091Z,1004.89
2017-12-10T01:24:45.336Z,1004.86
2017-12-10T01:26:12.572Z,1004.88
2017-12-10T01:27:39.523Z,1004.84
2017-12-10T01:29:06.631Z,1004.82
2017-12-10T01:30:33.814Z,1004.79
2017-12-10T01:32:01.149Z,1004.80
2017-12-10T01:33:28.421Z,1004.81
2017-12-10T01:34:55.774Z,1004.80
2017-12-10T01:36:23.107Z,1004.75
2017-12-10T01:37:50.346Z,1004.80
2017-12-10T01:39:17.289Z,1004.79
2017-12-10T01:40:44.569Z,1004.80
2017-12-10T01:42:11.783Z,1004.79
2017-12-10T01:43:38.982Z,1004.80
2017-12-10T01:45:06.098Z,1004.75
2017-12-10T01:46:33.306Z,1004.72
2017-12-10T01:48:00.539Z,1004.68
2017-12-10T01:49:27.689Z,1004.70
2017-12-10T01:50:54.957Z,1004.70
2017-12-10T01:52:22.377Z,1004.66
2017-12-10T01:53:50.446Z,1004.63
2017-12-10T01:55:16.861Z,1004.62
2017-12-10T01:56:44.182Z,1004.59
2017-12-10T01:58:11.274Z,1004.55
2017-12-10T01:59:38.685Z,1004.52
2017-12-10T02:01:05.707Z,1004.48
2017-12-10T02:02:32.897Z,1004.40
2017-12-10T02:04:00.167Z,1004.38
2017-12-10T02:05:27.416Z,1004.35
2017-12-10T02:06:54.727Z,1004.30
2017-12-10T02:08:22.007Z,1004.31
2017-12-10T02:09:49.362Z,1004.29
2017-12-10T02:11:16.581Z,1004.17
2017-12-10T02:12:43.968Z,1004.22
2017-12-10T02:14:11.176Z,1004.23
2017-12-10T02:15:38.128Z,1004.20
2017-12-10T02:17:05.129Z,1004.16
2017-12-10T02:18:32.518Z,1004.18
2017-12-10T02:19:59.773Z,1004.19
2017-12-10T02:21:27.077Z,1004.11
2017-12-10T02:22:53.891Z,1004.13
2017-12-10T02:24:21.252Z,1004.11
2017-12-10T02:25:48.440Z,1004.08
2017-12-10T02:27:15.635Z,1004.10
2017-12-10T02:28:43.058Z,1004.05
2017-12-10T02:30:10.255Z,1004.03
2017-12-10T02:31:37.416Z,1004.03
2017-12-10T02:33:04.563Z,1004.04
2017-12-10T02:34:31.681Z,1004.02
2017-12-10T02:35:58.945Z,1004.00
2017-12-10T02:37:26.150Z,1003.98
2017-12-10T02:38:53.456Z,1003.97
2017-12-10T02:40:20.717Z,1003.94
2017-12-10T02:41:47.981Z,1003.92
2017-12-10T02:43:15.092Z,1003.91
2017-12-10T02:44:42.184Z,1003.89
2017-12-10T02:46:09.346Z,1003.85
2017-12-10T02:47:36.511Z,1003.82
2017-12-10T02:49:03.362Z,1003.79
2017-12-10T02:50:30.538Z,1003.78
2017-12-10T02:51:57.978Z,1003.78
2017-12-10T02:53:25.169Z,1003.74
2017-12-10T02:54:52.312Z,1003.73
2017-12-10T02:56:19.500Z,1003.68
2017-12-10T02:57:46.579Z,1003.69
2017-12-10T02:59:13.812Z,1003.66
2017-12-10T03:00:41.105Z,1003.68
2017-12-10T03:02:08.388Z,1003.67
2017-12-10T03:03:35.735Z,1003.68
2017-12-10T03:05:02.742Z,1003.64
2017-12-10T03:06:29.870Z,1003.63
2017-12-10T03:07:56.905Z,1003.62
2017-12-10T03:09:24.144Z,1003.67
2017-12-10T03:10:51.351Z,1003.68
2017-12-10T03:12:18.450Z,1003.66
2017-12-10T03:13:45.574Z,1003.65
2017-12-10T03:15:12.869Z,1003.58
2017-12-10T03:16:40.207Z,1003.55
2017-12-10T03:18:07.326Z,1003.54
2017-12-10T03:19:34.618Z,1003.52
2017-12-10T03:21:01.680Z,1003.51
2017-12-10T03:22:28.938Z,1003.51
2017-12-10T03:23:55.944Z,1003.53
2017-12-10T03:25:23.450Z,1003.51
2017-12-10T03:26:50.427Z,1003.50
2017-12-10T03:28:17.669Z,1003.52
2017-12-10T03:29:44.963Z,1003.45
2017-12-10T03:31:12.142Z,1003.47
2017-12-10T03:32:39.291Z,1003.49
2017-12-10T03:34:06.448Z,1003.52
2017-12-10T03:35:33.557Z,1003.51
2017-12-10T03:37:00.824Z,1003.51
2017-12-10T03:38:28.018Z,1003.50
2017-12-10T03:39:55.232Z,1003.49
2017-12-10T03:41:22.378Z,1003.49
2017-12-10T03:42:49.506Z,1003.53
2017-12-10T03:44:16.872Z,1003.49
2017-12-10T03:45:44.069Z,1003.51
2017-12-10T03:47:11.303Z,1003.52
2017-12-10T03:48:38.327Z,1003.52
2017-12-10T03:50:05.368Z,1003.52
2017-12-10T03:51:32.791Z,1003.53
2017-12-10T03:53:00.020Z,1003.56
2017-12-10T03:54:27.384Z,1003.56
2017-12-10T03:55:54.607Z,1003.52
2017-12-10T03:57:21.701Z,1003.50
2017-12-10T03:58:48.877Z,1003.54
2017-12-10T04:00:16.008Z,1003.52
2017-12-10T04:01:43.321Z,1003.50
2017-12-10T04:03:10.528Z,1003.47
2017-12-10T04:04:37.689Z,1003.49
2017-12-10T04:06:05.140Z,1003.48
2017-12-10T04:07:32.276Z,1003.46
2017-12-10T04:08:59.604Z,1003.48
2017-12-10T04:10:26.870Z,1003.44
2017-12-10T04:11:54.040Z,1003.43
2017-12-10T04:13:20.951Z,1003.45
2017-12-10T04:14:48.257Z,1003.43
2017-12-10T04:16:15.288Z,1003.41
2017-12-10T04:17:42.455Z,1003.45
2017-12-10T04:19:09.636Z,1003.40
2017-12-10T04:20:36.671Z,1003.35
2017-12-10T04:22:03.746Z,1003.34
2017-12-10T04:23:30.936Z,1003.30
2017-12-10T04:24:58.124Z,1003.29
2017-12-10T04:26:25.502Z,1003.25
2017-12-10T04:27:52.679Z,1003.22
2017-12-10T04:29:19.902Z,1003.20
2017-12-10T04:30:46.992Z,1003.19
2017-12-10T04:32:14.135Z,1003.16
2017-12-10T04:33:41.324Z,1003.15
2017-12-10T04:35:08.541Z,1003.12
2017-12-10T04:36:35.961Z,1003.12
2017-12-10T04:38:02.854Z,1003.11
2017-12-10T04:39:30.162Z,1003.05
2017-12-10T04:40:57.211Z,1003.06
2017-12-10T04:42:24.622Z,1003.06
2017-12-10T04:43:51.584Z,1003.06
2017-12-10T04:45:18.906Z,1003.06
2017-12-10T04:46:46.174Z,1003.03
2017-12-10T04:48:13.200Z,1003.04
2017-12-10T04:49:40.587Z,1003.03
2017-12-10T04:51:07.698Z,1002.98
2017-12-10T04:52:34.958Z,1002.97
2017-12-10T04:54:02.086Z,1002.92
2017-12-10T04:55:29.423Z,1002.90
2017-12-10T04:56:56.540Z,1002.85
2017-12-10T04:58:23.780Z,1002.82
2017-12-10T04:59:50.997Z,1002.83
2017-12-10T05:01:18.257Z,1002.80
2017-12-10T05:02:45.418Z,1002.76
2017-12-10T05:04:12.792Z,1002.74
2017-12-10T05:05:39.679Z,1002.73
2017-12-10T05:07:06.905Z,1002.67
2017-12-10T05:08:33.908Z,1002.62
2017-12-10T05:10:01.006Z,1002.65
2017-12-10T05:11:28.255Z,1002.62
2017-12-10T05:12:55.508Z,1002.66
2017-12-10T05:14:22.834Z,1002.64
2017-12-10T05:15:50.014Z,1002.63
2017-12-10T05:17:17.366Z,1002.60
2017-12-10T05:18:44.468Z,1002.56
2017-12-10T05:20:11.714Z,1002.54
2017-12-10T05:21:38.943Z,1002.55
2017-12-10T05:23:06.190Z,1002.52
2017-12-10T05:24:33.074Z,1002.51
2017-12-10T05:26:00.361Z,1002.50
2017-12-10T05:27:27.548Z,1002.49
2017-12-10T05:28:54.839Z,1002.53
2017-12-10T05:30:21.953Z,1002.44
2017-12-10T05:31:49.159Z,1002.44
2017-12-10T05:33:16.433Z,1002.43
2017-12-10T05:34:43.607Z,1002.38
2017-12-10T05:36:10.836Z,1002.36
2017-12-10T05:37:38.129Z,1002.33
2017-12-10T05:39:05.260Z,1002.33
2017-12-10T05:40:32.451Z,1002.30
2017-12-10T05:41:59.716Z,1002.32
2017-12-10T05:43:27.075Z,1002.26
2017-12-10T05:44:54.131Z,1002.21
2017-12-10T05:46:21.220Z,1002.20
2017-12-10T05:47:48.410Z,1002.17
2017-12-10T05:49:15.540Z,1002.18
2017-12-10T05:50:42.833Z,1002.14
2017-12-10T05:52:09.929Z,1002.11
2017-12-10T05:53:37.010Z,1002.07
2017-12-10T05:55:04.141Z,1002.05
2017-12-10T05:56:31.412Z,1002.03
2017-12-10T05:57:58.535Z,1002.01
2017-12-10T05:59:25.645Z,1002.00
2017-12-10T06:00:52.862Z,1001.98
2017-12-10T06:02:19.944Z,1001.96
2017-12-10T06:03:47.157Z,1001.96
2017-12-10T06:05:14.207Z,1001.90
2017-12-10T06:06:41.265Z,1001.87
2017-12-10T06:08:08.452Z,1001.83
2017-12-10T06:09:35.645Z,1001.84
2017-12-10T06:11:02.691Z,1001.86
2017-12-10T06:12:29.791Z,1001.81
2017-12-10T06:13:56.857Z,1001.80
2017-12-10T06:15:24.104Z,1001.80
2017-12-10T06:16:51.404Z,1001.81
2017-12-10T06:18:18.530Z,1001.75
2017-12-10T06:19:45.748Z,1001.77
2017-12-10T06:21:12.949Z,1001.74
2017-12-10T06:22:40.155Z,1001.76
2017-12-10T06:24:07.284Z,1001.74
2017-12-10T06:25:34.321Z,1001.71
2017-12-10T06:27:01.533Z,1001.72
2017-12-10T06:28:28.823Z,1001.67
2017-12-10T06:29:56.165Z,1001.66
2017-12-10T06:31:23.212Z,1001.67
2017-12-10T06:32:50.516Z,1001.61
2017-12-10T06:34:17.623Z,1001.63
2017-12-10T06:35:44.935Z,1001.61
2017-12-10T06:37:12.127Z,1001.60
2017-12-10T06:38:39.351Z,1001.57
2017-12-10T06:40:06.557Z,1001.59
2017-12-10T06:41:33.630Z,1001.55
2017-12-10T06:43:00.762Z,1001.51
2017-12-10T06:44:27.953Z,1001.50
2017-12-10T06:45:55.236Z,1001.48
2017-12-10T06:47:22.111Z,1001.46
2017-12-10T06:48:49.392Z,1001.46
2017-12-10T06:50:16.635Z,1001.45
2017-12-10T06:51:43.861Z,1001.46
2017-12-10T06:53:11.002Z,1001.43
2017-12-10T06:54:38.108Z,1001.40
2017-12-10T06:56:05.257Z,1001.43
2017-12-10T06:57:32.439Z,1001.45
2017-12-10T06:58:59.654Z,1001.41
2017-12-10T07:00:26.806Z,1001.39
2017-12-10T07:01:54.117Z,1001.35
2017-12-10T07:03:21.366Z,1001.33
2017-12-10T07:04:48.535Z,1001.34
2017-12-10T07:06:15.793Z,1001.29
2017-12-10T07:07:43.087Z,1001.29
2017-12-10T07:09:10.305Z,1001.30
2017-12-10T07:10:37.514Z,1001.32
2017-12-10T07:12:04.648Z,1001.30
2017-12-10T07:13:31.816Z,1001.30
2017-12-10T07:14:58.885Z,1001.29
2017-12-10T07:16:26.110Z,1001.25
2017-12-10T07:17:53.378Z,1001.24
2017-12-10T07:19:20.695Z,1001.21
2017-12-10T07:20:47.837Z,1001.16
2017-12-10T07:22:15.088Z,1001.13
2017-12-10T07:23:42.201Z,1001.07
2017-12-10T07:25:09.546Z,1001.05
2017-12-10T07:26:36.654Z,1001.04
2017-12-10T07:28:03.810Z,1001.01
2017-12-10T07:29:30.902Z,1000.98
2017-12-10T07:30:58.207Z,1000.98
2017-12-10T07:32:25.449Z,1000.99
2017-12-10T07:33:52.552Z,1000.93
2017-12-10T07:35:19.826Z,1000.89
2017-12-10T07:36:47.111Z,1000.85
2017-12-10T07:38:14.286Z,1000.80
2017-12-10T07:39:41.491Z,1000.75
2017-12-10T07:41:08.788Z,1000.74
2017-12-10T07:42:35.997Z,1000.72
2017-12-10T07:44:03.050Z,1000.68
2017-12-10T07:45:30.246Z,1000.66
2017-12-10T07:46:57.553Z,1000.62
2017-12-10T07:48:24.590Z,1000.58
2017-12-10T07:49:51.936Z,1000.58
2017-12-10T07:51:19.158Z,1000.55
2017-12-10T07:52:46.418Z,1000.55
2017-12-10T07:54:13.690Z,1000.54
2017-12-10T07:55:40.843Z,1000.52
2017-12-10T07:57:07.697Z,1000.50
2017-12-10T07:58:34.899Z,1000.52
2017-12-10T08:00:02.213Z,1000.51
2017-12-10T08:01:29.598Z,1000.48
2017-12-10T08:02:56.628Z,1000.49
2017-12-10T08:04:23.882Z,1000.51
2017-12-10T08:05:51.072Z,1000.46
2017-12-10T08:07:18.550Z,1000.41
2017-12-10T08:08:45.783Z,1000.37
2017-12-10T08:10:12.910Z,1000.35
2017-12-10T08:11:40.171Z,1000.33
2017-12-10T08:13:07.322Z,1000.33
2017-12-10T08:14:34.489Z,1000.34
2017-12-10T08:16:01.675Z,1000.32
2017-12-10T08:17:28.894Z,1000.27
2017-12-10T08:18:56.083Z,1000.25
2017-12-10T08:20:23.269Z,1000.23
2017-12-10T08:21:50.383Z,1000.19
2017-12-10T08:23:17.704Z,1000.19
2017-12-10T08:24:44.822Z,1000.16
2017-12-10T08:26:12.009Z,1000.12
2017-12-10T08:27:39.195Z,1000.08
2017-12-10T08:29:06.459Z,1000.09
2017-12-10T08:30:33.427Z,1000.04
2017-12-10T08:32:00.668Z,1000.02
2017-12-10T08:33:27.930Z,1000.02
2017-12-10T08:34:55.156Z,1000.01
2017-12-10T08:36:22.483Z,1000.00
2017-12-10T08:37:49.654Z,999.95
2017-12-10T08:39:16.915Z,999.95
2017-12-10T08:40:44.097Z,999.94
2017-12-10T08:42:11.264Z,999.91
2017-12-10T08:43:38.426Z,999.94
2017-12-10T08:45:05.455Z,999.91
2017-12-10T08:46:32.946Z,999.92
2017-12-10T08:48:00.061Z,999.89
2017-12-10T08:49:27.333Z,999.88
2017-12-10T08:50:54.521Z,999.88
2017-12-10T08:52:21.658Z,999.84
2017-12-10T08:53:48.945Z,999.79
2017-12-10T08:55:15.971Z,999.78
2017-12-10T08:56:43.129Z,999.80
2017-12-10T08:58:10.307Z,999.78
2017-12-10T08:59:37.591Z,999.77
2017-12-10T09:01:04.717Z,999.76
2017-12-10T09:02:31.879Z,999.76
2017-12-10T09:03:59.145Z,999.69
2017-12-10T09:05:26.459Z,999.70
2017-12-10T09:06:53.483Z,999.65
2017-12-10T09:08:20.595Z,999.63
2017-12-10T09:09:47.895Z,999.60
2017-12-10T09:11:15.151Z,999.59
2017-12-10T09:12:42.406Z,999.53
2017-12-10T09:14:09.562Z,999.52
2017-12-10T09:15:36.814Z,999.51
2017-12-10T09:17:03.990Z,999.43
2017-12-10T09:18:31.026Z,999.42
2017-12-10T09:19:58.152Z,999.38
2017-12-10T09:21:25.435Z,999.33
2017-12-10T09:22:52.721Z,999.26
2017-12-10T09:24:19.976Z,999.23
2017-12-10T09:25:47.271Z,999.18
2017-12-10T09:27:14.377Z,999.13
2017-12-10T09:28:41.570Z,999.09
2017-12-10T09:30:08.890Z,999.10
2017-12-10T09:31:35.880Z,999.06
2017-12-10T09:33:02.906Z,999.04
2017-12-10T09:34:30.019Z,999.01
2017-12-10T09:35:57.420Z,998.97
2017-12-10T09:37:24.270Z,998.92
2017-12-10T09:38:51.520Z,998.93
2017-12-10T09:40:18.830Z,998.90
2017-12-10T09:41:46.147Z,998.92
2017-12-10T09:43:13.357Z,998.87
2017-12-10T09:44:40.489Z,998.83
2017-12-10T09:46:07.751Z,998.80
2017-12-10T09:47:34.849Z,998.74
2017-12-10T09:49:02.009Z,998.74
2017-12-10T09:50:29.218Z,998.76
2017-12-10T09:51:56.502Z,998.71
2017-12-10T09:53:23.841Z,998.68
2017-12-10T09:54:51.147Z,998.64
2017-12-10T09:56:18.448Z,998.60
2017-12-10T09:57:45.358Z,998.64
2017-12-10T09:59:12.563Z,998.55
2017-12-10T10:00:39.836Z,998.46
2017-12-10T10:02:06.946Z,998.43
2017-12-10T10:03:34.266Z,998.41
2017-12-10T10:05:01.260Z,998.38
2017-12-10T10:06:28.518Z,998.32
2017-12-10T10:07:55.732Z,998.24
2017-12-10T10:09:22.936Z,998.19
2017-12-10T10:10:50.306Z,998.17
2017-12-10T10:12:17.489Z,998.13
2017-12-10T10:13:44.838Z,998.10
2017-12-10T10:15:12.168Z,998.09
2017-12-10T10:16:39.502Z,998.03
2017-12-10T10:18:06.367Z,998.01
2017-12-10T10:19:33.715Z,998.01
2017-12-10T10:21:00.697Z,997.95
2017-12-10T10:22:27.924Z,997.92
2017-12-10T10:23:54.951Z,997.82
2017-12-10T10:25:22.285Z,997.78
2017-12-10T10:26:49.209Z,997.76
2017-12-10T10:28:16.349Z,997.74
2017-12-10T10:29:43.538Z,997.70
2017-12-10T10:31:10.772Z,997.68
2017-12-10T10:32:37.887Z,997.59
2017-12-10T10:34:05.014Z,997.52
2017-12-10T10:35:32.288Z,997.45
2017-12-10T10:36:59.379Z,997.37
2017-12-10T10:38:26.738Z,997.37
2017-12-10T10:39:53.883Z,997.29
2017-12-10T10:41:21.071Z,997.23
2017-12-10T10:42:48.409Z,997.23
2017-12-10T10:44:15.603Z,997.16
2017-12-10T10:45:42.875Z,997.13
2017-12-10T10:47:10.143Z,997.08
2017-12-10T10:48:37.308Z,997.05
2017-12-10T10:50:04.578Z,997.05
2017-12-10T10:51:31.890Z,996.99
2017-12-10T10:52:58.877Z,996.93
2017-12-10T10:54:26.058Z,996.89
2017-12-10T10:55:53.236Z,996.86
2017-12-10T10:57:20.253Z,996.84
2017-12-10T10:58:47.549Z,996.80
2017-12-10T11:00:14.794Z,996.79
2017-12-10T11:01:41.910Z,996.77
2017-12-10T11:03:09.009Z,996.69
2017-12-10T11:04:36.082Z,996.63
2017-12-10T11:06:03.253Z,996.55
2017-12-10T11:07:30.443Z,996.51
2017-12-10T11:08:57.830Z,996.49
2017-12-10T11:10:25.108Z,996.47
2017-12-10T11:11:52.407Z,996.46
2017-12-10T11:13:19.466Z,996.44
2017-12-10T11:14:46.463Z,996.42
2017-12-10T11:16:13.618Z,996.41
2017-12-10T11:17:40.888Z,996.42
2017-12-10T11:19:08.071Z,996.41
2017-12-10T11:20:35.067Z,996.43
2017-12-10T11:22:02.429Z,996.37
2017-12-10T11:23:29.685Z,996.32
2017-12-10T11:24:57.011Z,996.31
2017-12-10T11:26:24.291Z,996.23
2017-12-10T11:27:51.639Z,996.22
2017-12-10T11:29:18.770Z,996.17
2017-12-10T11:30:45.907Z,996.17
2017-12-10T11:32:12.908Z,996.11
2017-12-10T11:33:39.990Z,996.09
2017-12-10T11:35:07.223Z,996.06
2017-12-10T11:36:34.301Z,995.98
2017-12-10T11:38:01.531Z,995.94
2017-12-10T11:39:28.688Z,995.92
2017-12-10T11:40:55.887Z,995.90
2017-12-10T11:42:22.997Z,995.90
2017-12-10T11:43:50.072Z,995.88
2017-12-10T11:45:17.371Z,995.81
2017-12-10T11:46:44.575Z,995.76
2017-12-10T11:48:11.935Z,995.73
2017-12-10T11:49:38.945Z,995.68
2017-12-10T11:51:06.106Z,995.65
2017-12-10T11:52:33.209Z,995.63
2017-12-10T11:54:00.381Z,995.62
2017-12-10T11:55:27.516Z,995.61
2017-12-10T11:56:54.716Z,995.57
2017-12-10T11:58:22.040Z,995.51
2017-12-10T11:59:49.291Z,995.43
2017-12-10T12:01:16.546Z,995.41
2017-12-10T12:02:44.191Z,995.39
2017-12-10T12:04:11.409Z,995.35
2017-12-10T12:05:38.629Z,995.28
2017-12-10T12:07:05.902Z,995.24
2017-12-10T12:08:32.877Z,995.17
2017-12-10T12:10:00.296Z,995.13
2017-12-10T12:11:27.460Z,995.13
2017-12-10T12:12:54.701Z,995.02
2017-12-10T12:14:21.785Z,995.00
2017-12-10T12:15:49.020Z,994.98
2017-12-10T12:17:16.290Z,994.93
2017-12-10T12:18:43.644Z,994.90
2017-12-10T12:20:10.535Z,994.87
2017-12-10T12:21:38.001Z,994.85
2017-12-10T12:23:04.842Z,994.86
2017-12-10T12:24:32.168Z,994.79
2017-12-10T12:25:59.212Z,994.69
2017-12-10T12:27:26.496Z,994.73
2017-12-10T12:28:53.827Z,994.71
2017-12-10T12:30:21.033Z,994.70
2017-12-10T12:31:48.282Z,994.61
2017-12-10T12:33:15.542Z,994.56
2017-12-10T12:34:42.776Z,994.50
2017-12-10T12:36:10.117Z,994.46
2017-12-10T12:37:37.272Z,994.38
2017-12-10T12:39:04.436Z,994.34
2017-12-10T12:40:31.534Z,994.23
2017-12-10T12:41:58.701Z,994.16
2017-12-10T12:43:26.247Z,994.09
2017-12-10T12:44:53.575Z,994.06
2017-12-10T12:46:20.824Z,994.00
2017-12-10T12:47:48.104Z,994.03
2017-12-10T12:49:15.292Z,993.98
2017-12-10T12:50:42.521Z,993.94
2017-12-10T12:52:09.620Z,993.90
2017-12-10T12:53:36.967Z,993.87
2017-12-10T12:55:04.147Z,993.87
2017-12-10T12:56:31.314Z,993.79
2017-12-10T12:57:58.460Z,993.76
2017-12-10T12:59:25.815Z,993.72
2017-12-10T13:00:52.976Z,993.72
2017-12-10T13:02:20.129Z,993.68
2017-12-10T13:03:47.430Z,993.66
2017-12-10T13:05:14.579Z,993.65
2017-12-10T13:06:41.770Z,993.61
2017-12-10T13:08:09.139Z,993.57
2017-12-10T13:09:36.227Z,993.51
2017-12-10T13:11:03.266Z,993.47
2017-12-10T13:12:30.471Z,993.43
2017-12-10T13:13:57.540Z,993.38
2017-12-10T13:15:24.484Z,993.39
2017-12-10T13:16:51.651Z,993.37
2017-12-10T13:18:18.873Z,993.33
2017-12-10T13:19:45.995Z,993.32
2017-12-10T13:21:13.212Z,993.27
2017-12-10T13:22:40.412Z,993.25
2017-12-10T13:24:07.608Z,993.22
2017-12-10T13:25:34.813Z,993.14
2017-12-10T13:27:02.001Z,993.06
2017-12-10T13:28:29.319Z,993.02
2017-12-10T13:29:56.491Z,992.97
2017-12-10T13:31:23.842Z,992.95
2017-12-10T13:32:51.025Z,992.92
2017-12-10T13:34:18.067Z,992.90
2017-12-10T13:35:45.342Z,992.86
2017-12-10T13:37:12.723Z,992.85
2017-12-10T13:38:39.750Z,992.85
2017-12-10T13:40:06.861Z,992.84
2017-12-10T13:41:33.941Z,992.82
2017-12-10T13:43:01.060Z,992.78
2017-12-10T13:44:28.347Z,992.76
2017-12-10T13:45:55.685Z,992.75
2017-12-10T13:47:22.938Z,992.73
2017-12-10T13:48:50.140Z,992.70
2017-12-10T13:50:17.373Z,992.66
2017-12-10T13:51:44.681Z,992.63
2017-12-10T13:53:11.799Z,992.57
2017-12-10T13:54:39.043Z,992.54
2017-12-10T13:56:06.187Z,992.54
2017-12-10T13:57:33.202Z,992.50
2017-12-10T13:59:00.288Z,992.48
2017-12-10T14:00:27.588Z,992.48
2017-12-10T14:01:54.933Z,992.44
2017-12-10T14:03:22.081Z,992.40
2017-12-10T14:04:49.187Z,992.42
2017-12-10T14:06:16.541Z,992.37
2017-12-10T14:07:43.461Z,992.35
2017-12-10T14:09:10.630Z,992.37
2017-12-10T14:10:37.828Z,992.37
2017-12-10T14:12:05.020Z,992.31
2017-12-10T14:13:32.091Z,992.25
2017-12-10T14:14:59.323Z,992.23
2017-12-10T14:16:26.305Z,992.19
2017-12-10T14:17:53.571Z,992.19
2017-12-10T14:19:20.804Z,992.19
2017-12-10T14:20:47.976Z,992.19
2017-12-10T14:22:14.884Z,992.15
2017-12-10T14:23:41.827Z,992.15
2017-12-10T14:25:09.026Z,992.18
2017-12-10T14:26:36.158Z,992.20
2017-12-10T14:28:02.956Z,992.20
2017-12-10T14:29:30.357Z,992.15
2017-12-10T14:30:57.266Z,992.15
2017-12-10T14:32:24.572Z,992.13
2017-12-10T14:33:51.758Z,992.11
2017-12-10T14:35:18.925Z,992.10
2017-12-10T14:36:46.113Z,992.07
2017-12-10T14:38:13.529Z,992.06
2017-12-10T14:39:40.484Z,992.02
2017-12-10T14:41:07.753Z,992.01
2017-12-10T14:42:34.797Z,992.00
2017-12-10T14:44:02.031Z,991.96
2017-12-10T14:45:29.146Z,991.96
2017-12-10T14:46:56.441Z,991.96
2017-12-10T14:48:23.671Z,991.93
2017-12-10T14:49:50.837Z,991.91
2017-12-10T14:51:18.078Z,991.89
2017-12-10T14:52:45.491Z,991.88
2017-12-10T14:54:12.650Z,991.86
2017-12-10T14:55:39.868Z,991.78
2017-12-10T14:57:07.176Z,991.75
2017-12-10T14:58:34.281Z,991.67
2017-12-10T15:00:01.525Z,991.66
2017-12-10T15:01:28.751Z,991.62
2017-12-10T15:02:55.864Z,991.54
2017-12-10T15:04:23.049Z,991.52
2017-12-10T15:05:50.053Z,991.47
2017-12-10T15:07:17.142Z,991.42
2017-12-10T15:08:44.208Z,991.42
2017-12-10T15:10:11.349Z,991.43
2017-12-10T15:11:38.592Z,991.44
2017-12-10T15:13:05.478Z,991.38
2017-12-10T15:14:32.635Z,991.39
2017-12-10T15:15:59.866Z,991.42
2017-12-10T15:17:27.095Z,991.40
2017-12-10T15:18:54.229Z,991.32
2017-12-10T15:20:21.270Z,991.29
2017-12-10T15:21:48.473Z,991.27
2017-12-10T15:23:15.743Z,991.25
2017-12-10T15:24:42.843Z,991.28
2017-12-10T15:26:10.052Z,991.35
2017-12-10T15:27:37.142Z,991.35
2017-12-10T15:29:04.204Z,991.35
2017-12-10T15:30:31.460Z,991.26
2017-12-10T15:31:58.514Z,991.25
2017-12-10T15:33:25.749Z,991.26
2017-12-10T15:34:53.050Z,991.22
2017-12-10T15:36:20.248Z,991.22
2017-12-10T15:37:47.246Z,991.21
2017-12-10T15:39:14.320Z,991.27
2017-12-10T15:40:41.454Z,991.22
2017-12-10T15:42:08.841Z,991.19
2017-12-10T15:43:35.741Z,991.20
2017-12-10T15:45:03.025Z,991.17
2017-12-10T15:46:30.198Z,991.19
2017-12-10T15:47:57.405Z,991.12
2017-12-10T15:49:24.680Z,991.05
2017-12-10T15:50:51.676Z,990.98
2017-12-10T15:52:18.829Z,990.96
2017-12-10T15:53:45.945Z,990.91
2017-12-10T15:55:13.145Z,990.88
2017-12-10T15:56:40.366Z,990.84
2017-12-10T15:58:07.447Z,990.82
2017-12-10T15:59:34.539Z,990.87
2017-12-10T16:01:01.712Z,990.82
2017-12-10T16:02:28.872Z,990.75
2017-12-10T16:03:55.958Z,990.73
2017-12-10T16:05:23.143Z,990.73
2017-12-10T16:06:50.256Z,990.73
2017-12-10T16:08:17.581Z,990.73
2017-12-10T16:09:44.730Z,990.67
2017-12-10T16:11:11.657Z,990.70
2017-12-10T16:12:38.916Z,990.63
2017-12-10T16:14:06.012Z,990.61
2017-12-10T16:15:32.982Z,990.55
2017-12-10T16:17:00.168Z,990.53
2017-12-10T16:18:27.209Z,990.50
2017-12-10T16:19:54.442Z,990.46
2017-12-10T16:21:21.618Z,990.43
2017-12-10T16:22:48.724Z,990.41
2017-12-10T16:24:15.924Z,990.37
2017-12-10T16:25:43.005Z,990.36
2017-12-10T16:27:10.409Z,990.29
2017-12-10T16:28:37.568Z,990.30
2017-12-10T16:30:04.715Z,990.24
2017-12-10T16:31:31.675Z,990.18
2017-12-10T16:32:59.008Z,990.18
2017-12-10T16:34:26.172Z,990.17
2017-12-10T16:35:53.220Z,990.12
2017-12-10T16:37:20.589Z,990.10
2017-12-10T16:38:47.726Z,990.10
2017-12-10T16:40:14.784Z,990.03
2017-12-10T16:41:41.997Z,990.03
2017-12-10T16:43:08.816Z,990.01
2017-12-10T16:44:36.068Z,990.01
2017-12-10T16:46:02.806Z,989.97
2017-12-10T16:47:30.044Z,989.98
2017-12-10T16:48:57.309Z,989.99
2017-12-10T16:50:24.526Z,989.95
2017-12-10T16:51:51.719Z,989.95
2017-12-10T16:53:18.905Z,989.96
2017-12-10T16:54:46.204Z,989.89
2017-12-10T16:56:13.433Z,989.90
2017-12-10T16:57:40.516Z,989.90
2017-12-10T16:59:07.744Z,989.88
2017-12-10T17:00:34.971Z,989.86
2017-12-10T17:02:02.397Z,989.85
2017-12-10T17:03:29.487Z,989.82
2017-12-10T17:04:56.639Z,989.81
2017-12-10T17:06:23.827Z,989.76
2017-12-10T17:07:50.930Z,989.75
2017-12-10T17:09:17.856Z,989.73
2017-12-10T17:10:45.151Z,989.72
2017-12-10T17:12:12.211Z,989.69
2017-12-10T17:13:39.343Z,989.67
2017-12-10T17:15:06.328Z,989.63
2017-12-10T17:16:33.308Z,989.61
2017-12-10T17:18:00.649Z,989.59
2017-12-10T17:19:27.919Z,989.58
2017-12-10T17:20:55.160Z,989.58
2017-12-10T17:22:22.285Z,989.48
2017-12-10T17:23:49.532Z,989.44
2017-12-10T17:25:16.803Z,989.42
2017-12-10T17:26:44.080Z,989.38
2017-12-10T17:28:11.202Z,989.35
2017-12-10T17:29:38.485Z,989.23
2017-12-10T17:31:05.509Z,989.28
2017-12-10T17:32:32.972Z,989.22
2017-12-10T17:34:00.180Z,989.20
2017-12-10T17:35:27.416Z,989.20
2017-12-10T17:36:54.883Z,989.20
2017-12-10T17:38:22.123Z,989.20
2017-12-10T17:39:49.389Z,989.10
2017-12-10T17:41:16.384Z,989.11
2017-12-10T17:42:43.492Z,989.14
2017-12-10T17:44:10.634Z,989.23
2017-12-10T17:45:37.712Z,989.12
2017-12-10T17:47:04.844Z,989.11
2017-12-10T17:48:32.059Z,989.11
2017-12-10T17:49:59.125Z,989.12
2017-12-10T17:51:26.223Z,989.08